sensor_id;sensor_type;location;lat;lon;timestamp;pressure;altitude;pressure_sealevel;temperature;humidity
47536;BME280;33278;50.826;9.030;2022-09-06T00:01:21;98788.69;;;20.67;50.87
47536;BME280;33278;50.826;9.030;2022-09-06T00:03:52;98787.06;;;20.66;50.80
47536;BME280;33278;50.826;9.030;2022-09-06T00:06:22;98783.56;;;20.66;50.85
47536;BME280;33278;50.826;9.030;2022-09-06T00:08:53;98796.63;;;20.64;50.84
47536;BME280;33278;50.826;9.030;2022-09-06T00:11:23;98793.91;;;20.64;50.94
47536;BME280;33278;50.826;9.030;2022-09-06T00:13:53;98789.63;;;20.63;51.01
47536;BME280;33278;50.826;9.030;2022-09-06T00:16:24;98779.09;;;20.61;51.00
47536;BME280;33278;50.826;9.030;2022-09-06T00:18:55;98777.50;;;20.60;50.95
47536;BME280;33278;50.826;9.030;2022-09-06T00:21:27;98783.72;;;20.61;50.92
47536;BME280;33278;50.826;9.030;2022-09-06T00:23:58;98787.22;;;20.61;51.06
47536;BME280;33278;50.826;9.030;2022-09-06T00:26:28;98776.41;;;20.61;51.21
47536;BME280;33278;50.826;9.030;2022-09-06T00:28:59;98777.50;;;20.60;50.98
47536;BME280;33278;50.826;9.030;2022-09-06T00:31:29;98774.81;;;20.60;51.28
47536;BME280;33278;50.826;9.030;2022-09-06T00:33:59;98767.78;;;20.59;51.23
47536;BME280;33278;50.826;9.030;2022-09-06T00:36:30;98759.34;;;20.61;51.26
47536;BME280;33278;50.826;9.030;2022-09-06T00:39:00;98754.25;;;20.59;51.08
47536;BME280;33278;50.826;9.030;2022-09-06T00:41:30;98756.16;;;20.59;51.43
47536;BME280;33278;50.826;9.030;2022-09-06T00:44:01;98763.16;;;20.60;51.51
47536;BME280;33278;50.826;9.030;2022-09-06T00:46:32;98761.28;;;20.60;51.52
47536;BME280;33278;50.826;9.030;2022-09-06T00:49:14;98763.97;;;20.60;51.79
47536;BME280;33278;50.826;9.030;2022-09-06T00:51:58;98757.75;;;20.60;51.56
47536;BME280;33278;50.826;9.030;2022-09-06T00:54:30;98758.84;;;20.59;51.78
47536;BME280;33278;50.826;9.030;2022-09-06T00:57:01;98760.44;;;20.60;51.39
47536;BME280;33278;50.826;9.030;2022-09-06T00:59:33;98762.38;;;20.59;51.64
47536;BME280;33278;50.826;9.030;2022-09-06T01:02:05;98758.38;;;20.56;51.69
47536;BME280;33278;50.826;9.030;2022-09-06T01:04:38;98752.34;;;20.60;51.82
47536;BME280;33278;50.826;9.030;2022-09-06T01:15:40;98759.19;;;20.57;51.97
47536;BME280;33278;50.826;9.030;2022-09-06T01:18:37;98759.97;;;20.58;52.08
47536;BME280;33278;50.826;9.030;2022-09-06T01:21:31;98763.81;;;20.56;52.17
47536;BME280;33278;50.826;9.030;2022-09-06T01:24:13;98764.59;;;20.57;52.05
47536;BME280;33278;50.826;9.030;2022-09-06T01:29:38;98755.69;;;20.56;52.09
47536;BME280;33278;50.826;9.030;2022-09-06T01:32:35;98751.38;;;20.55;52.33
47536;BME280;33278;50.826;9.030;2022-09-06T01:38:01;98752.50;;;20.54;52.20
47536;BME280;33278;50.826;9.030;2022-09-06T01:40:33;98751.69;;;20.54;52.37
47536;BME280;33278;50.826;9.030;2022-09-06T01:43:09;98750.56;;;20.55;52.46
47536;BME280;33278;50.826;9.030;2022-09-06T01:51:58;98728.44;;;20.53;52.45
47536;BME280;33278;50.826;9.030;2022-09-06T02:00:11;98743.09;;;20.52;52.68
47536;BME280;33278;50.826;9.030;2022-09-06T02:03:06;98735.25;;;20.50;52.68
47536;BME280;33278;50.826;9.030;2022-09-06T02:05:50;98734.47;;;20.50;52.85
47536;BME280;33278;50.826;9.030;2022-09-06T02:08:31;98741.16;;;20.52;52.81
47536;BME280;33278;50.826;9.030;2022-09-06T02:11:05;98733.38;;;20.51;52.61
47536;BME280;33278;50.826;9.030;2022-09-06T02:14:07;98739.91;;;20.50;52.68
47536;BME280;33278;50.826;9.030;2022-09-06T02:16:41;98739.09;;;20.49;52.86
47536;BME280;33278;50.826;9.030;2022-09-06T02:19:41;98738.47;;;20.52;53.20
47536;BME280;33278;50.826;9.030;2022-09-06T02:22:16;98739.63;;;20.69;53.23
47536;BME280;33278;50.826;9.030;2022-09-06T02:24:50;98740.47;;;20.78;52.49
47536;BME280;33278;50.826;9.030;2022-09-06T02:27:21;98735.56;;;20.80;52.73
47536;BME280;33278;50.826;9.030;2022-09-06T02:29:52;98737.09;;;20.73;53.44
47536;BME280;33278;50.826;9.030;2022-09-06T02:32:23;98736.00;;;20.74;53.97
47536;BME280;33278;50.826;9.030;2022-09-06T02:34:55;98730.88;;;20.72;54.20
47536;BME280;33278;50.826;9.030;2022-09-06T02:37:26;98732.00;;;20.71;54.59
47536;BME280;33278;50.826;9.030;2022-09-06T02:39:56;98740.91;;;20.71;54.85
47536;BME280;33278;50.826;9.030;2022-09-06T02:42:27;98741.22;;;20.70;54.77
47536;BME280;33278;50.826;9.030;2022-09-06T02:44:57;98737.53;;;20.66;54.59
47536;BME280;33278;50.826;9.030;2022-09-06T02:47:27;98737.06;;;20.64;54.80
47536;BME280;33278;50.826;9.030;2022-09-06T02:49:58;98728.78;;;20.60;54.83
47536;BME280;33278;50.826;9.030;2022-09-06T02:52:28;98729.91;;;20.59;54.78
47536;BME280;33278;50.826;9.030;2022-09-06T02:54:58;98732.91;;;20.58;54.65
47536;BME280;33278;50.826;9.030;2022-09-06T02:57:28;98725.91;;;20.56;54.75
47536;BME280;33278;50.826;9.030;2022-09-06T02:59:59;98728.63;;;20.56;54.72
47536;BME280;33278;50.826;9.030;2022-09-06T03:02:29;98737.03;;;20.55;54.70
47536;BME280;33278;50.826;9.030;2022-09-06T03:04:59;98729.22;;;20.53;54.90
47536;BME280;33278;50.826;9.030;2022-09-06T03:07:30;98724.16;;;20.52;54.84
47536;BME280;33278;50.826;9.030;2022-09-06T03:10:00;98721.72;;;20.50;54.70
47536;BME280;33278;50.826;9.030;2022-09-06T03:12:30;98723.66;;;20.50;54.80
47536;BME280;33278;50.826;9.030;2022-09-06T03:15:01;98733.22;;;20.47;54.97
47536;BME280;33278;50.826;9.030;2022-09-06T03:17:31;98735.91;;;20.47;54.87
47536;BME280;33278;50.826;9.030;2022-09-06T03:20:02;98741.31;;;20.47;54.91
47536;BME280;33278;50.826;9.030;2022-09-06T03:22:32;98752.47;;;20.46;55.08
47536;BME280;33278;50.826;9.030;2022-09-06T03:25:03;98765.19;;;20.45;55.00
47536;BME280;33278;50.826;9.030;2022-09-06T03:27:34;98772.53;;;20.45;55.06
47536;BME280;33278;50.826;9.030;2022-09-06T03:30:05;98769.81;;;20.45;55.11
47536;BME280;33278;50.826;9.030;2022-09-06T03:32:35;98769.31;;;20.43;55.15
47536;BME280;33278;50.826;9.030;2022-09-06T03:35:06;98773.63;;;20.44;55.04
47536;BME280;33278;50.826;9.030;2022-09-06T03:37:36;98774.41;;;20.44;55.18
47536;BME280;33278;50.826;9.030;2022-09-06T03:40:07;98776.34;;;20.44;54.99
47536;BME280;33278;50.826;9.030;2022-09-06T03:42:38;98771.25;;;20.42;55.12
47536;BME280;33278;50.826;9.030;2022-09-06T03:45:08;98745.28;;;20.41;54.67
47536;BME280;33278;50.826;9.030;2022-09-06T03:47:39;98759.13;;;20.39;54.71
47536;BME280;33278;50.826;9.030;2022-09-06T03:50:09;98751.00;;;20.39;54.67
47536;BME280;33278;50.826;9.030;2022-09-06T03:52:39;98737.00;;;20.37;54.52
47536;BME280;33278;50.826;9.030;2022-09-06T03:55:09;98720.78;;;20.37;54.55
47536;BME280;33278;50.826;9.030;2022-09-06T03:57:40;98713.75;;;20.36;54.60
47536;BME280;33278;50.826;9.030;2022-09-06T04:00:11;98711.06;;;20.36;54.65
47536;BME280;33278;50.826;9.030;2022-09-06T04:02:42;98710.25;;;20.36;54.68
47536;BME280;33278;50.826;9.030;2022-09-06T04:05:12;98692.41;;;20.35;54.62
47536;BME280;33278;50.826;9.030;2022-09-06T04:07:45;98692.41;;;20.35;54.64
47536;BME280;33278;50.826;9.030;2022-09-06T04:10:15;98683.81;;;20.33;54.71
47536;BME280;33278;50.826;9.030;2022-09-06T04:12:46;98672.19;;;20.32;54.70
47536;BME280;33278;50.826;9.030;2022-09-06T04:15:16;98674.59;;;20.34;54.82
47536;BME280;33278;50.826;9.030;2022-09-06T04:17:46;98664.06;;;20.32;54.80
47536;BME280;33278;50.826;9.030;2022-09-06T04:20:17;98663.28;;;20.32;54.92
47536;BME280;33278;50.826;9.030;2022-09-06T04:22:47;98669.47;;;20.32;54.92
47536;BME280;33278;50.826;9.030;2022-09-06T04:25:17;98699.56;;;20.31;54.99
47536;BME280;33278;50.826;9.030;2022-09-06T04:27:47;98721.22;;;20.31;55.18
47536;BME280;33278;50.826;9.030;2022-09-06T04:30:18;98728.22;;;20.32;55.06
47536;BME280;33278;50.826;9.030;2022-09-06T04:32:48;98720.44;;;20.30;55.25
47536;BME280;33278;50.826;9.030;2022-09-06T04:35:18;98713.88;;;20.31;55.13
47536;BME280;33278;50.826;9.030;2022-09-06T04:37:49;98719.63;;;20.30;55.08
47536;BME280;33278;50.826;9.030;2022-09-06T04:40:19;98726.13;;;20.29;55.02
47536;BME280;33278;50.826;9.030;2022-09-06T04:42:49;98713.72;;;20.28;55.13
47536;BME280;33278;50.826;9.030;2022-09-06T04:45:19;98704.81;;;20.27;55.05
47536;BME280;33278;50.826;9.030;2022-09-06T04:47:50;98711.81;;;20.28;54.97
47536;BME280;33278;50.826;9.030;2022-09-06T04:50:20;98710.22;;;20.27;55.08
47536;BME280;33278;50.826;9.030;2022-09-06T04:52:50;98727.56;;;20.26;55.19
47536;BME280;33278;50.826;9.030;2022-09-06T04:55:21;98730.25;;;20.26;55.21
47536;BME280;33278;50.826;9.030;2022-09-06T04:57:51;98715.13;;;20.25;55.09
47536;BME280;33278;50.826;9.030;2022-09-06T05:00:21;98708.94;;;20.24;54.97
47536;BME280;33278;50.826;9.030;2022-09-06T05:02:52;98701.13;;;20.23;55.23
47536;BME280;33278;50.826;9.030;2022-09-06T05:05:23;98720.88;;;20.23;55.17
47536;BME280;33278;50.826;9.030;2022-09-06T05:07:54;98713.38;;;20.20;55.32
47536;BME280;33278;50.826;9.030;2022-09-06T05:10:24;98697.63;;;20.22;55.21
47536;BME280;33278;50.826;9.030;2022-09-06T05:12:55;98693.31;;;20.21;55.33
47536;BME280;33278;50.826;9.030;2022-09-06T05:15:25;98705.75;;;20.22;55.04
47536;BME280;33278;50.826;9.030;2022-09-06T05:18:03;98719.28;;;20.22;55.15
47536;BME280;33278;50.826;9.030;2022-09-06T05:20:33;98718.78;;;20.20;55.28
47536;BME280;33278;50.826;9.030;2022-09-06T05:23:04;98714.47;;;20.19;55.29
47536;BME280;33278;50.826;9.030;2022-09-06T05:25:34;98708.78;;;20.21;55.27
47536;BME280;33278;50.826;9.030;2022-09-06T05:28:04;98706.06;;;20.21;55.41
47536;BME280;33278;50.826;9.030;2022-09-06T05:30:35;98706.06;;;20.21;55.30
47536;BME280;33278;50.826;9.030;2022-09-06T05:33:05;98699.38;;;20.18;55.43
47536;BME280;33278;50.826;9.030;2022-09-06T05:35:36;98701.28;;;20.18;55.42
47536;BME280;33278;50.826;9.030;2022-09-06T05:38:06;98709.38;;;20.18;55.56
47536;BME280;33278;50.826;9.030;2022-09-06T05:40:37;98708.28;;;20.19;55.31
47536;BME280;33278;50.826;9.030;2022-09-06T05:43:07;98711.78;;;20.19;55.29
47536;BME280;33278;50.826;9.030;2022-09-06T05:45:37;98711.78;;;20.19;55.50
47536;BME280;33278;50.826;9.030;2022-09-06T05:48:08;98706.38;;;20.19;55.33
47536;BME280;33278;50.826;9.030;2022-09-06T05:50:38;98712.59;;;20.20;55.34
47536;BME280;33278;50.826;9.030;2022-09-06T05:53:08;98694.91;;;20.14;55.30
47536;BME280;33278;50.826;9.030;2022-09-06T05:55:39;98724.19;;;20.20;55.48
47536;BME280;33278;50.826;9.030;2022-09-06T05:58:09;98726.13;;;20.20;55.38
47536;BME280;33278;50.826;9.030;2022-09-06T06:00:39;98723.09;;;20.21;55.34
47536;BME280;33278;50.826;9.030;2022-09-06T06:03:10;98733.91;;;20.21;55.20
47536;BME280;33278;50.826;9.030;2022-09-06T06:05:45;98732.00;;;20.22;55.34
47536;BME280;33278;50.826;9.030;2022-09-06T06:08:16;98734.72;;;20.22;55.74
47536;BME280;33278;50.826;9.030;2022-09-06T06:10:46;98738.22;;;20.22;55.29
47536;BME280;33278;50.826;9.030;2022-09-06T06:13:16;98735.81;;;20.21;55.43
47536;BME280;33278;50.826;9.030;2022-09-06T06:15:46;98739.00;;;20.23;55.35
47536;BME280;33278;50.826;9.030;2022-09-06T06:18:17;98738.69;;;20.24;55.43
47536;BME280;33278;50.826;9.030;2022-09-06T06:20:47;98737.88;;;20.24;55.48
47536;BME280;33278;50.826;9.030;2022-09-06T06:23:17;98745.72;;;20.26;55.29
47536;BME280;33278;50.826;9.030;2022-09-06T06:25:47;98734.06;;;20.25;55.30
47536;BME280;33278;50.826;9.030;2022-09-06T06:28:18;98732.97;;;20.26;55.60
47536;BME280;33278;50.826;9.030;2022-09-06T06:30:48;98734.56;;;20.27;55.72
47536;BME280;33278;50.826;9.030;2022-09-06T06:33:19;98737.59;;;20.26;55.49
47536;BME280;33278;50.826;9.030;2022-09-06T06:36:39;98744.59;;;20.27;55.63
47536;BME280;33278;50.826;9.030;2022-09-06T06:38:52;98753.19;;;20.29;55.53
47536;BME280;33278;50.826;9.030;2022-09-06T06:41:25;98739.66;;;20.29;55.52
47536;BME280;33278;50.826;9.030;2022-09-06T06:43:58;98753.69;;;20.31;55.51
47536;BME280;33278;50.826;9.030;2022-09-06T06:46:34;98756.38;;;20.31;55.52
47536;BME280;33278;50.826;9.030;2022-09-06T06:49:05;98763.41;;;20.32;55.59
47536;BME280;33278;50.826;9.030;2022-09-06T06:51:35;98759.59;;;20.33;55.54
47536;BME280;33278;50.826;9.030;2022-09-06T06:54:08;98769.31;;;20.34;55.33
47536;BME280;33278;50.826;9.030;2022-09-06T06:56:39;98773.41;;;20.31;55.78
47536;BME280;33278;50.826;9.030;2022-09-06T06:59:10;98761.19;;;20.34;55.53
47536;BME280;33278;50.826;9.030;2022-09-06T07:01:40;98767.38;;;20.34;55.56
47536;BME280;33278;50.826;9.030;2022-09-06T07:04:11;98773.56;;;20.35;55.31
47536;BME280;33278;50.826;9.030;2022-09-06T07:06:51;98765.47;;;20.35;55.43
47536;BME280;33278;50.826;9.030;2022-09-06T07:09:22;98765.47;;;20.35;55.38
47536;BME280;33278;50.826;9.030;2022-09-06T07:11:52;98763.88;;;20.34;55.27
47536;BME280;33278;50.826;9.030;2022-09-06T07:14:23;98766.28;;;20.35;55.44
47536;BME280;33278;50.826;9.030;2022-09-06T07:16:53;98752.75;;;20.35;55.08
47536;BME280;33278;50.826;9.030;2022-09-06T07:19:27;98737.28;;;20.36;55.20
47536;BME280;33278;50.826;9.030;2022-09-06T07:21:57;98750.03;;;20.35;55.18
47536;BME280;33278;50.826;9.030;2022-09-06T07:24:27;98745.41;;;20.36;55.06
47536;BME280;33278;50.826;9.030;2022-09-06T07:26:58;98744.31;;;20.37;55.12
47536;BME280;33278;50.826;9.030;2022-09-06T07:29:28;98745.41;;;20.36;54.54
47536;BME280;33278;50.826;9.030;2022-09-06T07:31:58;98758.16;;;20.35;54.97
47536;BME280;33278;50.826;9.030;2022-09-06T07:34:29;98756.72;;;20.38;54.98
47536;BME280;33278;50.826;9.030;2022-09-06T07:37:00;98754.81;;;20.38;54.93
47536;BME280;33278;50.826;9.030;2022-09-06T07:39:30;98747.50;;;20.39;54.94
47536;BME280;33278;50.826;9.030;2022-09-06T07:42:02;98747.66;;;20.34;54.96
47536;BME280;33278;50.826;9.030;2022-09-06T07:44:33;98757.50;;;20.38;55.04
47536;BME280;33278;50.826;9.030;2022-09-06T07:47:03;98748.28;;;20.39;55.06
47536;BME280;33278;50.826;9.030;2022-09-06T07:49:35;98745.91;;;20.38;54.99
47536;BME280;33278;50.826;9.030;2022-09-06T07:52:05;98747.50;;;20.39;55.06
47536;BME280;33278;50.826;9.030;2022-09-06T07:54:36;98745.28;;;20.41;54.73
47536;BME280;33278;50.826;9.030;2022-09-06T07:57:06;98744.47;;;20.40;54.74
47536;BME280;33278;50.826;9.030;2022-09-06T07:59:36;98748.78;;;20.42;54.84
47536;BME280;33278;50.826;9.030;2022-09-06T08:02:07;98749.88;;;20.40;54.90
47536;BME280;33278;50.826;9.030;2022-09-06T08:04:37;98748.78;;;20.42;54.88
47536;BME280;33278;50.826;9.030;2022-09-06T08:07:07;98748.00;;;20.41;54.76
47536;BME280;33278;50.826;9.030;2022-09-06T08:09:37;98756.91;;;20.42;54.95
47536;BME280;33278;50.826;9.030;2022-09-06T08:12:08;98751.97;;;20.44;54.89
47536;BME280;33278;50.826;9.030;2022-09-06T08:14:38;98747.34;;;20.44;54.65
47536;BME280;33278;50.826;9.030;2022-09-06T08:17:08;98746.88;;;20.42;54.65
47536;BME280;33278;50.826;9.030;2022-09-06T08:19:39;98749.59;;;20.42;54.79
47536;BME280;33278;50.826;9.030;2022-09-06T08:22:09;98753.88;;;20.43;54.65
47536;BME280;33278;50.826;9.030;2022-09-06T08:24:40;98743.03;;;20.43;54.01
47536;BME280;33278;50.826;9.030;2022-09-06T08:27:10;98748.94;;;20.45;54.35
47536;BME280;33278;50.826;9.030;2022-09-06T08:29:40;98752.47;;;20.46;54.00
47536;BME280;33278;50.826;9.030;2022-09-06T08:32:11;98745.47;;;20.45;53.97
47536;BME280;33278;50.826;9.030;2022-09-06T08:34:41;98744.81;;;20.48;53.71
47536;BME280;33278;50.826;9.030;2022-09-06T08:37:11;98750.22;;;20.48;53.53
47536;BME280;33278;50.826;9.030;2022-09-06T08:39:42;98748.34;;;20.48;53.57
47536;BME280;33278;50.826;9.030;2022-09-06T08:42:12;98747.22;;;20.49;53.69
47536;BME280;33278;50.826;9.030;2022-09-06T08:44:49;98748.78;;;20.50;53.54
47536;BME280;33278;50.826;9.030;2022-09-06T08:47:21;98752.31;;;20.51;53.40
47536;BME280;33278;50.826;9.030;2022-09-06T08:50:10;98747.69;;;20.51;53.23
47536;BME280;33278;50.826;9.030;2022-09-06T08:52:55;98745.78;;;20.52;53.13
47536;BME280;33278;50.826;9.030;2022-09-06T08:55:50;98748.19;;;20.53;53.28
47536;BME280;33278;50.826;9.030;2022-09-06T09:01:00;98744.69;;;20.53;53.27
47536;BME280;33278;50.826;9.030;2022-09-06T09:03:36;98740.22;;;20.57;53.53
47536;BME280;33278;50.826;9.030;2022-09-06T09:06:07;98734.31;;;20.55;53.45
47536;BME280;33278;50.826;9.030;2022-09-06T09:11:22;98730.84;;;20.54;53.32
47536;BME280;33278;50.826;9.030;2022-09-06T09:17:03;98732.72;;;20.54;53.23
47536;BME280;33278;50.826;9.030;2022-09-06T09:19:35;98727.81;;;20.56;53.16
47536;BME280;33278;50.826;9.030;2022-09-06T09:22:07;98725.09;;;20.56;53.15
47536;BME280;33278;50.826;9.030;2022-09-06T09:24:39;98723.22;;;20.56;53.12
47536;BME280;33278;50.826;9.030;2022-09-06T09:27:10;98726.38;;;20.59;53.04
47536;BME280;33278;50.826;9.030;2022-09-06T09:32:44;98718.25;;;20.59;53.15
47536;BME280;33278;50.826;9.030;2022-09-06T09:38:06;98714.16;;;20.61;53.07
47536;BME280;33278;50.826;9.030;2022-09-06T09:40:47;98714.16;;;20.61;52.83
47536;BME280;33278;50.826;9.030;2022-09-06T09:43:22;98713.34;;;20.61;53.02
47536;BME280;33278;50.826;9.030;2022-09-06T09:46:13;98714.44;;;20.60;52.95
47536;BME280;33278;50.826;9.030;2022-09-06T09:48:58;98706.03;;;20.61;52.81
47536;BME280;33278;50.826;9.030;2022-09-06T09:51:55;98693.59;;;20.60;52.63
47536;BME280;33278;50.826;9.030;2022-09-06T09:57:15;98693.28;;;20.62;52.82
47536;BME280;33278;50.826;9.030;2022-09-06T10:07:53;98684.22;;;20.66;52.47
47536;BME280;33278;50.826;9.030;2022-09-06T10:10:26;98679.56;;;20.67;52.56
47536;BME280;33278;50.826;9.030;2022-09-06T10:13:19;98682.94;;;20.64;52.35
47536;BME280;33278;50.826;9.030;2022-09-06T10:15:51;98682.28;;;20.67;52.26
47536;BME280;33278;50.826;9.030;2022-09-06T10:18:35;98684.22;;;20.66;52.68
47536;BME280;33278;50.826;9.030;2022-09-06T10:21:12;98671.47;;;20.67;52.39
47536;BME280;33278;50.826;9.030;2022-09-06T10:29:11;98672.72;;;20.69;52.47
47536;BME280;33278;50.826;9.030;2022-09-06T10:34:31;98671.63;;;20.70;52.11
47536;BME280;33278;50.826;9.030;2022-09-06T10:40:06;98651.56;;;20.71;52.11
47536;BME280;33278;50.826;9.030;2022-09-06T10:42:51;98649.38;;;20.74;51.88
47536;BME280;33278;50.826;9.030;2022-09-06T10:48:08;98661.31;;;20.73;51.87
47536;BME280;33278;50.826;9.030;2022-09-06T10:50:54;98657.66;;;20.77;52.09
47536;BME280;33278;50.826;9.030;2022-09-06T10:53:51;98656.06;;;20.76;52.10
47536;BME280;33278;50.826;9.030;2022-09-06T11:02:31;98665.78;;;20.77;52.09
47536;BME280;33278;50.826;9.030;2022-09-06T11:05:17;98658.44;;;20.78;51.98
47536;BME280;33278;50.826;9.030;2022-09-06T11:07:59;98660.03;;;20.79;51.76
47536;BME280;33278;50.826;9.030;2022-09-06T11:10:32;98651.13;;;20.78;51.66
47536;BME280;33278;50.826;9.030;2022-09-06T11:24:31;98646.19;;;20.80;51.59
47536;BME280;33278;50.826;9.030;2022-09-06T11:27:23;98649.69;;;20.81;51.64
47536;BME280;33278;50.826;9.030;2022-09-06T11:29:57;98647.75;;;20.81;51.44
47536;BME280;33278;50.826;9.030;2022-09-06T11:32:38;98645.06;;;20.81;51.38
47536;BME280;33278;50.826;9.030;2022-09-06T11:35:21;98646.19;;;20.80;51.55
47536;BME280;33278;50.826;9.030;2022-09-06T11:40:50;98633.44;;;20.81;51.37
47536;BME280;33278;50.826;9.030;2022-09-06T11:43:45;98642.69;;;20.80;51.32
47536;BME280;33278;50.826;9.030;2022-09-06T11:49:29;98639.63;;;20.81;51.00
47536;BME280;33278;50.826;9.030;2022-09-06T11:52:00;98637.41;;;20.83;50.96
47536;BME280;33278;50.826;9.030;2022-09-06T11:54:37;98625.81;;;20.83;50.90
47536;BME280;33278;50.826;9.030;2022-09-06T11:57:14;98623.09;;;20.83;50.92
47536;BME280;33278;50.826;9.030;2022-09-06T12:02:39;98621.16;;;20.83;50.87
47536;BME280;33278;50.826;9.030;2022-09-06T12:05:13;98621.97;;;20.84;50.93
47536;BME280;33278;50.826;9.030;2022-09-06T12:10:43;98625.00;;;20.82;51.11
47536;BME280;33278;50.826;9.030;2022-09-06T12:13:37;98619.56;;;20.82;51.05
47536;BME280;33278;50.826;9.030;2022-09-06T12:16:09;98618.47;;;20.83;50.92
47536;BME280;33278;50.826;9.030;2022-09-06T12:21:38;98608.75;;;20.82;51.00
47536;BME280;33278;50.826;9.030;2022-09-06T12:27:19;98614.16;;;20.82;50.88
47536;BME280;33278;50.826;9.030;2022-09-06T12:30:01;98608.59;;;20.87;50.77
47536;BME280;33278;50.826;9.030;2022-09-06T12:32:47;98604.31;;;20.86;50.66
47536;BME280;33278;50.826;9.030;2022-09-06T12:35:24;98593.13;;;20.88;50.66
47536;BME280;33278;50.826;9.030;2022-09-06T12:40:30;98598.88;;;20.86;50.76
47536;BME280;33278;50.826;9.030;2022-09-06T12:43:03;98605.09;;;20.87;50.40
47536;BME280;33278;50.826;9.030;2022-09-06T12:45:33;98594.25;;;20.87;50.64
47536;BME280;33278;50.826;9.030;2022-09-06T12:48:07;98593.47;;;20.86;50.49
47536;BME280;33278;50.826;9.030;2022-09-06T12:50:38;98593.13;;;20.88;50.29
47536;BME280;33278;50.826;9.030;2022-09-06T12:53:19;98583.91;;;20.89;50.28
47536;BME280;33278;50.826;9.030;2022-09-06T12:56:04;98590.75;;;20.86;50.47
47536;BME280;33278;50.826;9.030;2022-09-06T12:58:36;98588.06;;;20.86;50.39
47536;BME280;33278;50.826;9.030;2022-09-06T13:01:15;98578.81;;;20.87;50.50
47536;BME280;33278;50.826;9.030;2022-09-06T13:04:08;98585.81;;;20.88;50.45
47536;BME280;33278;50.826;9.030;2022-09-06T13:06:44;98581.53;;;20.87;50.49
47536;BME280;33278;50.826;9.030;2022-09-06T13:09:18;98576.41;;;20.86;50.29
47536;BME280;33278;50.826;9.030;2022-09-06T13:11:50;98582.78;;;20.90;50.26
47536;BME280;33278;50.826;9.030;2022-09-06T13:14:26;98571.16;;;20.90;50.47
47536;BME280;33278;50.826;9.030;2022-09-06T13:16:58;98566.22;;;20.92;50.20
47536;BME280;33278;50.826;9.030;2022-09-06T13:19:34;98560.31;;;20.90;50.56
47536;BME280;33278;50.826;9.030;2022-09-06T13:22:07;98556.50;;;20.91;50.24
47536;BME280;33278;50.826;9.030;2022-09-06T13:24:44;98556.97;;;20.93;50.21
47536;BME280;33278;50.826;9.030;2022-09-06T13:30:00;98556.16;;;20.92;50.25
47536;BME280;33278;50.826;9.030;2022-09-06T13:32:33;98554.28;;;20.93;50.52
47536;BME280;33278;50.826;9.030;2022-09-06T13:35:04;98551.22;;;20.94;50.16
47536;BME280;33278;50.826;9.030;2022-09-06T13:37:34;98548.84;;;20.93;50.22
47536;BME280;33278;50.826;9.030;2022-09-06T13:43:10;98557.75;;;20.93;50.48
47536;BME280;33278;50.826;9.030;2022-09-06T13:45:40;98543.09;;;20.94;50.20
47536;BME280;33278;50.826;9.030;2022-09-06T13:48:11;98546.63;;;20.95;50.19
47536;BME280;33278;50.826;9.030;2022-09-06T13:50:41;98541.22;;;20.95;50.31
47536;BME280;33278;50.826;9.030;2022-09-06T13:53:18;98542.78;;;20.96;50.21
47536;BME280;33278;50.826;9.030;2022-09-06T13:55:48;98545.47;;;20.96;50.33
47536;BME280;33278;50.826;9.030;2022-09-06T13:58:19;98549.63;;;20.93;50.32
47536;BME280;33278;50.826;9.030;2022-09-06T14:00:52;98539.75;;;20.97;50.22
47536;BME280;33278;50.826;9.030;2022-09-06T14:03:26;98539.28;;;20.95;50.24
47536;BME280;33278;50.826;9.030;2022-09-06T14:05:58;98536.25;;;20.97;50.21
47536;BME280;33278;50.826;9.030;2022-09-06T14:08:29;98535.13;;;20.98;50.17
47536;BME280;33278;50.826;9.030;2022-09-06T14:10:59;98527.00;;;20.98;49.98
47536;BME280;33278;50.826;9.030;2022-09-06T14:13:30;98514.28;;;20.98;49.95
47536;BME280;33278;50.826;9.030;2022-09-06T14:16:00;98530.53;;;20.98;49.95
47536;BME280;33278;50.826;9.030;2022-09-06T14:18:31;98526.72;;;20.99;50.01
47536;BME280;33278;50.826;9.030;2022-09-06T14:21:01;98521.28;;;20.99;50.12
47536;BME280;33278;50.826;9.030;2022-09-06T14:23:31;98525.88;;;20.99;50.06
47536;BME280;33278;50.826;9.030;2022-09-06T14:26:03;98515.88;;;20.99;49.87
47536;BME280;33278;50.826;9.030;2022-09-06T14:28:35;98525.56;;;21.00;50.02
47536;BME280;33278;50.826;9.030;2022-09-06T14:31:12;98516.66;;;21.00;49.91
47536;BME280;33278;50.826;9.030;2022-09-06T14:33:44;98502.78;;;21.01;49.81
47536;BME280;33278;50.826;9.030;2022-09-06T14:36:16;98491.94;;;21.01;49.70
47536;BME280;33278;50.826;9.030;2022-09-06T14:38:47;98501.50;;;20.99;49.94
47536;BME280;33278;50.826;9.030;2022-09-06T14:41:18;98497.38;;;21.01;49.93
47536;BME280;33278;50.826;9.030;2022-09-06T14:43:51;98497.06;;;21.03;49.77
47536;BME280;33278;50.826;9.030;2022-09-06T14:46:23;98491.66;;;21.03;49.90
47536;BME280;33278;50.826;9.030;2022-09-06T14:48:59;98496.72;;;21.05;49.70
47536;BME280;33278;50.826;9.030;2022-09-06T14:51:30;98493.22;;;21.04;50.02
47536;BME280;33278;50.826;9.030;2022-09-06T14:54:03;98493.53;;;21.02;49.78
47536;BME280;33278;50.826;9.030;2022-09-06T14:56:34;98491.66;;;21.03;49.56
47536;BME280;33278;50.826;9.030;2022-09-06T14:59:06;98495.91;;;21.04;49.69
47536;BME280;33278;50.826;9.030;2022-09-06T15:01:37;98497.06;;;21.03;49.68
47536;BME280;33278;50.826;9.030;2022-09-06T15:04:09;98490.06;;;21.02;49.58
47536;BME280;33278;50.826;9.030;2022-09-06T15:06:40;98496.72;;;21.05;49.67
47536;BME280;33278;50.826;9.030;2022-09-06T15:09:14;98486.69;;;21.05;49.43
47536;BME280;33278;50.826;9.030;2022-09-06T15:11:49;98479.66;;;21.04;49.53
47536;BME280;33278;50.826;9.030;2022-09-06T15:14:25;98476.97;;;21.04;49.52
47536;BME280;33278;50.826;9.030;2022-09-06T15:16:57;98474.25;;;21.04;49.44
47536;BME280;33278;50.826;9.030;2022-09-06T15:19:34;98472.69;;;21.03;49.66
47536;BME280;33278;50.826;9.030;2022-09-06T15:22:05;98476.50;;;21.02;49.58